Time;durP1;ratioP1;P1;durP2;ratioP2;P2;SDS_P1;SDS_P2;PMS_P1;PMS_P2;Temp;Humidity;BMP_temperature;BMP_pressure;BME280_temperature;BME280_humidity;BME280_pressure;Samples;Min_cycle;Max_cycle;Signal;HPM_P1;HPM_P2
2021/11/08 00:01:32;;;;;;;8.55;5.57;;;5.00;94.10;;;;;;6248583;23;20004;-76
2021/11/08 00:03:58;;;;;;;7.72;4.70;;;4.90;94.00;;;;;;6222036;23;20051;-76
2021/11/08 00:06:23;;;;;;;9.52;5.90;;;4.90;92.60;;;;;;6220625;23;20020;-74
2021/11/08 00:08:49;;;;;;;8.63;5.63;;;4.90;93.30;;;;;;6220836;23;20015;-76
2021/11/08 00:11:16;;;;;;;7.90;4.70;;;5.00;92.80;;;;;;6247250;23;20008;-76
2021/11/08 00:13:43;;;;;;;8.10;5.18;;;5.00;92.00;;;;;;6221287;23;20000;-76
2021/11/08 00:16:30;;;;;;;13.43;6.55;;;5.00;92.30;;;;;;6248613;23;20362;-75
2021/11/08 00:19:13;;;;;;;11.50;6.72;;;5.00;92.40;;;;;;6220686;23;20007;-75
2021/11/08 00:21:44;;;;;;;8.70;5.82;;;5.00;92.30;;;;;;6248633;23;20004;-76
2021/11/08 00:24:13;;;;;;;9.77;5.43;;;5.00;92.20;;;;;;6246676;23;20004;-76
2021/11/08 00:26:42;;;;;;;9.95;5.47;;;5.10;91.40;;;;;;6245660;23;20004;-76
2021/11/08 00:29:08;;;;;;;9.05;5.40;;;5.10;92.00;;;;;;6245914;23;20030;-76
2021/11/08 00:31:37;;;;;;;9.32;5.18;;;5.10;91.80;;;;;;6219175;23;20078;-76
2021/11/08 00:34:03;;;;;;;9.40;4.85;;;5.10;91.60;;;;;;6246437;23;20425;-75
2021/11/08 00:36:29;;;;;;;14.05;5.47;;;5.10;91.60;;;;;;6246566;23;20038;-76
2021/11/08 00:38:55;;;;;;;11.80;5.10;;;5.10;91.60;;;;;;6246202;23;20035;-77
2021/11/08 00:41:21;;;;;;;8.18;4.88;;;5.20;91.40;;;;;;6244617;23;20005;-75
2021/11/08 00:43:46;;;;;;;9.82;5.10;;;5.20;91.60;;;;;;6245845;23;20058;-76
2021/11/08 00:46:12;;;;;;;12.48;6.22;;;5.20;92.10;;;;;;6245709;23;20008;-75
2021/11/08 00:48:38;;;;;;;13.02;4.88;;;5.20;93.00;;;;;;6219450;23;20018;-75
2021/11/08 00:51:04;;;;;;;12.02;4.93;;;5.10;92.80;;;;;;6245884;23;20026;-75
2021/11/08 00:53:31;;;;;;;7.93;4.93;;;5.10;92.80;;;;;;6218955;23;20018;-76
2021/11/08 00:56:01;;;;;;;10.25;4.63;;;5.10;92.40;;;;;;6218491;23;20027;-76
2021/11/08 00:58:33;;;;;;;9.88;5.32;;;5.10;92.40;;;;;;6246094;23;20000;-76
2021/11/08 01:01:03;;;;;;;8.95;4.53;;;5.10;93.20;;;;;;6248795;23;20428;-76
2021/11/08 01:03:31;;;;;;;10.48;4.68;;;5.10;92.30;;;;;;6246373;23;20135;-76
2021/11/08 01:05:57;;;;;;;10.27;4.90;;;5.20;92.80;;;;;;6218987;23;20008;-74
2021/11/08 01:08:23;;;;;;;11.73;4.88;;;5.10;92.90;;;;;;6246119;23;20333;-75
2021/11/08 01:10:49;;;;;;;13.15;5.60;;;5.10;93.20;;;;;;6244271;23;20032;-75
2021/11/08 01:13:14;;;;;;;13.07;5.55;;;5.10;93.70;;;;;;6218829;23;20070;-74
2021/11/08 01:15:40;;;;;;;11.13;6.22;;;5.10;93.70;;;;;;6246600;23;20083;-74
2021/11/08 01:18:06;;;;;;;10.60;5.47;;;5.10;94.30;;;;;;6246584;23;19997;-76
2021/11/08 01:20:34;;;;;;;10.45;5.65;;;5.10;94.20;;;;;;6220042;23;20058;-75
2021/11/08 01:23:03;;;;;;;8.50;5.32;;;5.10;94.30;;;;;;6219965;23;20175;-76
2021/11/08 01:25:30;;;;;;;11.05;5.50;;;5.10;94.40;;;;;;6244698;23;20075;-76
2021/11/08 01:27:59;;;;;;;11.02;5.40;;;5.10;94.20;;;;;;6222052;23;20031;-75
2021/11/08 01:30:26;;;;;;;13.57;5.60;;;5.10;94.00;;;;;;6249364;23;20366;-75
2021/11/08 01:32:59;;;;;;;13.95;5.78;;;5.10;94.20;;;;;;6249097;23;20000;-76
2021/11/08 01:35:34;;;;;;;12.10;6.03;;;5.10;94.10;;;;;;6247537;23;20005;-75
2021/11/08 01:38:04;;;;;;;12.40;5.80;;;5.10;94.50;;;;;;6246583;23;20000;-75
2021/11/08 01:40:30;;;;;;;12.82;6.78;;;5.10;94.30;;;;;;6218127;23;20008;-74
2021/11/08 01:42:56;;;;;;;12.68;7.57;;;5.10;94.60;;;;;;6219888;23;20007;-75
2021/11/08 01:45:22;;;;;;;15.40;8.50;;;5.10;94.70;;;;;;6245830;23;19996;-77
2021/11/08 01:47:48;;;;;;;12.57;7.20;;;5.00;94.90;;;;;;6246248;23;20362;-75
2021/11/08 01:50:14;;;;;;;9.38;6.10;;;5.00;94.60;;;;;;6219672;23;20008;-76
2021/11/08 01:52:39;;;;;;;14.48;6.25;;;5.00;94.40;;;;;;6245373;23;20014;-76
2021/11/08 01:55:06;;;;;;;12.93;6.32;;;5.00;94.70;;;;;;6245744;23;20473;-76
2021/11/08 01:57:31;;;;;;;12.80;6.38;;;4.90;95.00;;;;;;6245612;23;19996;-76
2021/11/08 01:59:59;;;;;;;11.32;4.68;;;4.80;95.10;;;;;;6248126;23;20309;-74
2021/11/08 02:02:26;;;;;;;9.25;5.03;;;4.70;95.20;;;;;;6248933;23;20012;-75
2021/11/08 02:04:52;;;;;;;9.02;5.07;;;4.70;94.40;;;;;;6248697;23;20000;-76
2021/11/08 02:07:18;;;;;;;12.10;4.95;;;4.60;94.80;;;;;;6221338;23;20266;-75
2021/11/08 02:09:44;;;;;;;12.88;5.35;;;4.50;94.90;;;;;;6248443;23;20408;-75
2021/11/08 02:12:11;;;;;;;12.32;5.03;;;4.50;94.80;;;;;;6247355;23;20008;-74
2021/11/08 02:14:39;;;;;;;9.98;4.70;;;4.30;95.20;;;;;;6248009;23;20032;-75
2021/11/08 02:17:06;;;;;;;9.85;5.07;;;4.30;94.80;;;;;;6248285;23;20003;-76
2021/11/08 02:19:32;;;;;;;13.93;4.95;;;4.20;95.30;;;;;;6221889;23;20004;-76
2021/11/08 02:22:00;;;;;;;16.50;5.20;;;4.10;95.80;;;;;;6248334;23;20359;-76
2021/11/08 02:24:26;;;;;;;13.35;5.80;;;4.00;95.70;;;;;;6248361;23;20000;-76
2021/11/08 02:26:53;;;;;;;11.35;4.80;;;3.90;95.60;;;;;;6246650;23;20011;-78
2021/11/08 02:29:18;;;;;;;12.93;5.97;;;3.90;95.30;;;;;;6221488;23;20310;-75
2021/11/08 02:31:44;;;;;;;17.58;6.93;;;3.90;95.20;;;;;;6247940;23;20006;-75
2021/11/08 02:34:10;;;;;;;14.57;6.78;;;3.90;95.10;;;;;;6248358;23;20004;-74
2021/11/08 02:36:41;;;;;;;12.98;5.68;;;3.80;95.30;;;;;;6248197;23;20420;-75
2021/11/08 02:39:14;;;;;;;15.02;5.43;;;3.60;95.40;;;;;;6221795;23;20393;-76
2021/11/08 02:41:41;;;;;;;13.67;6.50;;;3.60;94.50;;;;;;6246810;23;20139;-77
2021/11/08 02:44:07;;;;;;;15.50;6.05;;;3.40;95.20;;;;;;6223158;23;20239;-75
2021/11/08 02:46:38;;;;;;;10.55;5.15;;;3.30;94.20;;;;;;6250238;23;20316;-76
2021/11/08 02:49:06;;;;;;;13.07;5.57;;;3.30;93.90;;;;;;6250204;23;20000;-76
2021/11/08 02:51:32;;;;;;;8.07;4.78;;;3.30;93.30;;;;;;6223683;23;20373;-76
2021/11/08 02:54:14;;;;;;;10.43;5.63;;;3.30;94.60;;;;;;6250020;23;20000;-76
2021/11/08 02:56:39;;;;;;;12.57;5.45;;;3.10;95.00;;;;;;6248830;23;20027;-76
2021/11/08 02:59:05;;;;;;;10.93;5.10;;;2.90;94.70;;;;;;6249976;23;19996;-75
2021/11/08 03:01:32;;;;;;;12.63;5.38;;;2.80;94.60;;;;;;6223357;23;20420;-76
2021/11/08 03:04:00;;;;;;;16.58;6.03;;;2.70;94.50;;;;;;6250190;23;20130;-76
2021/11/08 03:06:31;;;;;;;14.23;5.65;;;2.60;94.70;;;;;;6249489;23;20020;-76
2021/11/08 03:09:17;;;;;;;8.93;4.45;;;2.40;94.40;;;;;;6223949;23;20446;-76
2021/11/08 03:11:43;;;;;;;13.18;5.82;;;2.40;94.20;;;;;;6221686;23;20016;-75
2021/11/08 03:14:16;;;;;;;15.30;6.07;;;2.30;93.70;;;;;;6223083;23;20316;-76
2021/11/08 03:16:51;;;;;;;7.97;5.33;;;2.30;93.00;;;;;;6223153;23;20038;-76
2021/11/08 03:21:45;;;;;;;16.42;6.78;;;2.30;93.10;;;;;;6260284;23;20008;-76
2021/11/08 03:24:19;;;;;;;14.30;5.20;;;2.20;92.60;;;;;;6250055;23;20075;-76
2021/11/08 03:26:51;;;;;;;16.20;6.47;;;2.20;92.00;;;;;;6247972;23;20039;-76
2021/11/08 03:29:18;;;;;;;18.33;6.22;;;2.20;92.50;;;;;;6250049;23;20083;-74
2021/11/08 03:31:47;;;;;;;10.00;5.72;;;2.10;92.10;;;;;;6249063;23;20000;-75
2021/11/08 03:34:13;;;;;;;11.27;5.80;;;2.10;91.60;;;;;;6249996;23;20000;-75
2021/11/08 03:36:39;;;;;;;12.23;5.57;;;2.10;91.70;;;;;;6250006;23;20079;-74
2021/11/08 03:39:05;;;;;;;18.52;6.32;;;2.10;91.60;;;;;;6249374;23;19997;-75
2021/11/08 03:41:32;;;;;;;15.20;6.45;;;2.10;91.50;;;;;;6221865;23;20062;-76
2021/11/08 03:43:58;;;;;;;17.05;6.00;;;2.00;91.40;;;;;;6249567;23;20000;-75
2021/11/08 03:46:24;;;;;;;18.88;6.57;;;2.00;90.90;;;;;;6249796;23;20009;-76
2021/11/08 03:48:50;;;;;;;13.60;7.30;;;2.00;91.20;;;;;;6249532;23;20050;-77
2021/11/08 03:51:15;;;;;;;15.13;6.68;;;2.00;90.80;;;;;;6223006;23;20366;-75
2021/11/08 03:53:41;;;;;;;19.80;7.25;;;2.00;90.90;;;;;;6249391;23;20024;-75
2021/11/08 03:56:07;;;;;;;14.10;7.30;;;1.80;91.50;;;;;;6247944;23;20000;-76
2021/11/08 03:58:33;;;;;;;18.63;6.22;;;1.80;90.90;;;;;;6249394;23;20020;-74
2021/11/08 04:01:00;;;;;;;14.80;7.65;;;1.80;90.60;;;;;;6249154;23;20035;-74
2021/11/08 04:03:25;;;;;;;18.17;7.75;;;1.80;89.90;;;;;;6249347;23;20000;-75
2021/11/08 04:05:51;;;;;;;13.30;6.55;;;1.90;89.90;;;;;;6249213;23;20039;-75
2021/11/08 04:08:21;;;;;;;13.65;6.20;;;1.80;90.50;;;;;;6222602;23;20004;-75
2021/11/08 04:10:51;;;;;;;20.75;7.10;;;1.60;91.40;;;;;;6247684;23;20054;-74
2021/11/08 04:13:17;;;;;;;19.98;7.95;;;1.60;90.00;;;;;;6249891;23;20020;-74
2021/11/08 04:15:45;;;;;;;21.10;7.75;;;1.60;89.40;;;;;;6222607;23;19997;-74
2021/11/08 04:18:19;;;;;;;25.60;7.82;;;1.60;89.80;;;;;;6249539;23;19996;-74
2021/11/08 04:20:46;;;;;;;;;;;1.60;89.50;;;;;;6223201;23;20382;-76
2021/11/08 04:23:14;;;;;;;16.48;6.80;;;1.50;90.60;;;;;;6222717;23;19927;-73
2021/11/08 04:25:41;;;;;;;27.42;8.75;;;1.40;89.70;;;;;;6247740;23;20001;-76
2021/11/08 04:28:10;;;;;;;17.17;7.30;;;1.50;89.20;;;;;;6249205;23;20004;-74
2021/11/08 04:30:38;;;;;;;14.43;6.38;;;1.60;88.10;;;;;;6248773;23;20000;-75
2021/11/08 04:38:54;;;;;;;20.42;7.25;;;2.10;86.90;;;;;;6249302;23;20278;-75
2021/11/08 04:41:28;;;;;;;20.48;7.45;;;2.20;87.20;;;;;;6247772;23;20004;-74
2021/11/08 04:49:33;;;;;;;15.90;7.43;;;2.40;87.20;;;;;;6098320;23;20029;-75
2021/11/08 04:52:17;;;;;;;17.98;7.07;;;2.50;86.90;;;;;;6228081;23;20035;-76
2021/11/08 05:30:10;;;;;;;13.40;6.57;;;3.00;87.60;;;;;;6156350;23;20024;-77
2021/11/08 05:32:39;;;;;;;22.42;7.82;;;3.00;87.80;;;;;;6213539;23;20020;-76
2021/11/08 05:35:08;;;;;;;19.10;6.55;;;2.90;88.00;;;;;;6249468;23;20071;-76
2021/11/08 05:37:35;;;;;;;20.30;7.20;;;2.90;88.00;;;;;;6248758;23;20004;-76
2021/11/08 05:40:08;;;;;;;16.48;7.53;;;2.90;87.90;;;;;;6222385;23;20008;-75
2021/11/08 05:42:34;;;;;;;16.70;5.97;;;2.80;88.40;;;;;;6220976;23;20052;-76
2021/11/08 05:45:01;;;;;;;16.88;6.03;;;2.80;87.30;;;;;;6222434;23;20324;-75
2021/11/08 05:47:28;;;;;;;21.67;7.20;;;2.90;87.40;;;;;;6248700;23;20063;-77
2021/11/08 05:49:54;;;;;;;20.42;8.30;;;2.90;87.50;;;;;;6249049;23;20003;-76
2021/11/08 05:52:20;;;;;;;24.35;8.77;;;3.00;87.50;;;;;;6248924;23;20031;-77
2021/11/08 05:54:46;;;;;;;23.15;9.82;;;3.00;87.60;;;;;;6249076;23;20350;-76
2021/11/08 06:49:28;;;;;;;19.40;7.47;;;2.00;88.00;;;;;;6250756;23;20023;-76
2021/11/08 06:51:56;;;;;;;35.60;9.07;;;2.10;87.80;;;;;;6250717;23;20000;-77
2021/11/08 06:54:24;;;;;;;22.48;9.45;;;2.10;87.60;;;;;;6223998;23;20000;-76
2021/11/08 06:56:57;;;;;;;19.38;8.77;;;2.10;87.90;;;;;;6220961;23;20030;-74
2021/11/08 06:59:25;;;;;;;34.72;10.70;;;2.10;88.40;;;;;;6223499;23;20070;-76
2021/11/08 07:01:54;;;;;;;16.88;8.15;;;2.10;88.00;;;;;;6250644;23;20137;-74
2021/11/08 07:04:22;;;;;;;28.80;9.38;;;2.10;87.10;;;;;;6223448;23;20012;-75
2021/11/08 07:06:47;;;;;;;27.00;7.90;;;2.30;86.80;;;;;;6250641;23;20020;-75
2021/11/08 07:09:14;;;;;;;27.60;7.95;;;2.40;86.50;;;;;;6223935;23;20108;-75
2021/11/08 07:11:40;;;;;;;39.13;9.23;;;2.50;86.40;;;;;;6249157;23;20425;-75
2021/11/08 07:14:07;;;;;;;42.17;9.70;;;2.60;86.80;;;;;;6250252;23;19996;-75
2021/11/08 07:16:34;;;;;;;35.05;8.88;;;2.70;86.30;;;;;;6223747;23;20461;-76
2021/11/08 07:19:00;;;;;;;22.15;7.38;;;2.80;86.20;;;;;;6250694;23;20035;-75
2021/11/08 07:21:26;;;;;;;20.15;7.38;;;2.90;86.70;;;;;;6223898;23;20317;-75
2021/11/08 07:23:51;;;;;;;23.80;8.40;;;2.90;86.90;;;;;;6223915;23;20008;-75
2021/11/08 07:26:17;;;;;;;19.50;7.75;;;2.80;88.00;;;;;;6248963;23;20425;-75
2021/11/08 07:28:43;;;;;;;24.73;8.25;;;2.80;88.00;;;;;;6223530;23;20008;-76
2021/11/08 07:31:09;;;;;;;22.70;8.00;;;2.70;88.10;;;;;;6223692;23;20012;-75
2021/11/08 07:33:35;;;;;;;16.98;7.82;;;2.60;88.60;;;;;;6250292;23;20001;-74
2021/11/08 07:36:02;;;;;;;24.45;8.50;;;2.60;88.40;;;;;;6250234;23;20007;-75
2021/11/08 07:38:27;;;;;;;21.17;8.68;;;2.50;89.00;;;;;;6250214;23;20003;-74
2021/11/08 07:40:53;;;;;;;26.58;11.57;;;2.40;88.90;;;;;;6248790;23;20004;-75
2021/11/08 07:43:19;;;;;;;28.33;11.05;;;2.40;88.70;;;;;;6249937;23;20269;-74
2021/11/08 07:45:44;;;;;;;21.13;8.25;;;2.50;87.70;;;;;;6250171;23;20376;-76
2021/11/08 07:48:11;;;;;;;24.10;7.68;;;2.70;86.60;;;;;;6249981;23;20004;-75
2021/11/08 07:50:38;;;;;;;22.65;7.57;;;3.00;85.40;;;;;;6223655;23;20004;-75
2021/11/08 07:53:04;;;;;;;18.38;6.47;;;3.20;86.10;;;;;;6223409;23;20000;-74
2021/11/08 07:55:30;;;;;;;27.92;7.30;;;3.20;88.00;;;;;;6221927;23;20004;-75
2021/11/08 07:57:55;;;;;;;18.27;6.90;;;3.20;88.50;;;;;;6249692;23;19996;-75
2021/11/08 08:00:21;;;;;;;17.13;6.72;;;3.30;87.90;;;;;;6249951;23;19996;-75
2021/11/08 08:02:49;;;;;;;24.55;9.23;;;3.50;88.20;;;;;;6250038;23;20001;-75
2021/11/08 08:05:15;;;;;;;19.42;6.28;;;3.60;88.40;;;;;;6249940;23;20370;-75
2021/11/08 08:07:41;;;;;;;20.95;6.38;;;3.80;88.90;;;;;;6223098;23;20393;-77
2021/11/08 08:10:07;;;;;;;16.92;6.32;;;3.90;88.70;;;;;;6223151;23;20034;-77
2021/11/08 08:12:33;;;;;;;20.77;6.20;;;4.10;88.90;;;;;;6247950;23;20008;-76
2021/11/08 08:14:59;;;;;;;13.68;5.18;;;4.30;89.00;;;;;;6250006;23;20071;-77
2021/11/08 08:17:24;;;;;;;24.77;5.70;;;4.60;86.90;;;;;;6249946;23;19996;-76
2021/11/08 08:19:50;;;;;;;11.43;3.65;;;5.20;85.30;;;;;;6249745;23;20072;-75
2021/11/08 08:22:16;;;;;;;13.43;3.55;;;6.30;84.20;;;;;;6249150;23;20011;-76
2021/11/08 08:24:41;;;;;;;12.32;3.38;;;7.30;92.80;;;;;;6222453;23;20008;-77
2021/11/08 08:27:07;;;;;;;7.72;3.25;;;8.50;97.10;;;;;;6248316;23;20000;-76
2021/11/08 08:29:33;;;;;;;13.23;2.75;;;9.70;98.00;;;;;;6250033;23;20604;-77
2021/11/08 08:32:00;;;;;;;10.73;2.70;;;10.60;98.00;;;;;;6249940;23;20004;-75
2021/11/08 08:34:28;;;;;;;9.10;2.80;;;10.90;98.00;;;;;;6249841;23;20254;-77
2021/11/08 08:36:56;;;;;;;11.77;2.45;;;11.40;98.00;;;;;;6249642;23;19997;-75
2021/11/08 08:39:23;;;;;;;8.95;2.10;;;12.10;97.30;;;;;;6249649;23;20027;-77
2021/11/08 08:41:49;;;;;;;9.45;2.13;;;12.80;94.00;;;;;;6247692;23;20075;-77
2021/11/08 08:44:15;;;;;;;8.50;1.85;;;13.30;91.80;;;;;;6249765;23;20004;-76
2021/11/08 08:46:43;;;;;;;7.90;1.83;;;13.90;88.90;;;;;;6249668;23;20004;-76
2021/11/08 08:49:11;;;;;;;7.80;1.75;;;14.50;85.10;;;;;;6249416;23;20075;-77
2021/11/08 08:51:37;;;;;;;8.10;2.08;;;15.30;84.20;;;;;;6249690;23;20000;-76
2021/11/08 08:54:04;;;;;;;10.02;1.90;;;15.70;77.40;;;;;;6222788;23;20004;-77
2021/11/08 08:56:30;;;;;;;10.68;2.85;;;16.30;76.20;;;;;;6248018;23;20007;-78
2021/11/08 08:58:56;;;;;;;11.18;2.40;;;16.60;72.80;;;;;;6249536;23;20071;-76
2021/11/08 09:01:23;;;;;;;11.30;3.42;;;16.20;71.60;;;;;;6249622;23;20405;-78
2021/11/08 09:03:50;;;;;;;11.52;3.47;;;15.50;71.20;;;;;;6249267;23;20007;-77
2021/11/08 09:06:17;;;;;;;6.45;2.00;;;14.80;73.90;;;;;;6249263;23;20008;-75
2021/11/08 09:08:43;;;;;;;12.30;3.90;;;15.00;72.90;;;;;;6249071;23;20000;-76
2021/11/08 09:11:09;;;;;;;12.60;5.68;;;14.50;74.80;;;;;;6247972;23;20012;-77
2021/11/08 09:13:36;;;;;;;9.57;3.20;;;14.40;75.90;;;;;;6249248;23;20063;-75
2021/11/08 09:16:03;;;;;;;10.25;3.30;;;13.50;77.40;;;;;;6222928;23;20054;-77
2021/11/08 09:18:28;;;;;;;17.08;4.35;;;12.90;79.10;;;;;;6222782;23;20011;-77
2021/11/08 09:20:54;;;;;;;9.80;3.20;;;13.10;80.10;;;;;;6249524;23;20262;-77
2021/11/08 09:23:20;;;;;;;11.50;3.08;;;13.40;80.30;;;;;;6249127;23;20008;-75
2021/11/08 09:25:45;;;;;;;9.23;3.00;;;13.50;79.20;;;;;;6247725;23;20004;-75
2021/11/08 09:28:11;;;;;;;12.95;3.33;;;13.60;79.10;;;;;;6222754;23;20043;-75
2021/11/08 09:30:41;;;;;;;12.38;4.07;;;13.70;79.50;;;;;;6249207;23;20024;-75
2021/11/08 09:33:08;;;;;;;11.90;4.25;;;13.60;80.10;;;;;;6198423;23;20343;-75
2021/11/08 09:35:38;;;;;;;14.43;4.22;;;12.60;81.40;;;;;;6249297;23;20004;-76
2021/11/08 09:38:06;;;;;;;13.90;4.20;;;12.60;82.90;;;;;;6248960;23;19996;-76
2021/11/08 09:40:33;;;;;;;8.13;3.42;;;12.40;82.50;;;;;;6247706;23;20000;-77
2021/11/08 09:42:59;;;;;;;9.18;4.43;;;12.30;82.40;;;;;;6249107;23;20000;-75
2021/11/08 09:45:25;;;;;;;10.77;4.40;;;12.20;83.10;;;;;;6249230;22;19997;-77
2021/11/08 09:47:51;;;;;;;15.48;4.35;;;12.10;83.80;;;;;;6248894;23;20014;-76
2021/11/08 09:50:21;;;;;;;15.10;6.43;;;12.40;82.80;;;;;;6222487;23;19996;-75
2021/11/08 09:52:49;;;;;;;9.88;4.60;;;12.20;84.00;;;;;;6247543;23;20292;-75
2021/11/08 09:55:18;;;;;;;14.55;4.78;;;12.10;84.00;;;;;;6221205;23;20000;-76
2021/11/08 09:57:45;;;;;;;11.25;4.78;;;11.60;85.10;;;;;;6222362;23;20004;-76
2021/11/08 10:00:19;;;;;;;11.73;4.90;;;11.80;85.90;;;;;;6222678;23;20051;-76
2021/11/08 10:02:49;;;;;;;;;;;12.30;84.40;;;;;;6248257;23;20442;-77
2021/11/08 10:05:14;;;;;;;13.27;4.78;;;12.40;82.40;;;;;;6249153;23;19907;-74
2021/11/08 10:07:40;;;;;;;10.07;4.22;;;12.30;82.80;;;;;;6248559;23;20243;-76
2021/11/08 10:10:06;;;;;;;12.70;4.78;;;12.70;82.50;;;;;;6249139;23;20008;-75
2021/11/08 10:12:33;;;;;;;11.85;4.90;;;12.70;82.60;;;;;;6245187;23;20008;-76
2021/11/08 10:14:59;;;;;;;8.20;4.22;;;12.10;83.90;;;;;;6248344;23;20005;-75
2021/11/08 10:17:28;;;;;;;11.20;4.45;;;12.20;84.30;;;;;;6248532;23;20079;-75
2021/11/08 10:19:54;;;;;;;11.68;3.65;;;12.20;84.80;;;;;;6248881;23;20028;-74
2021/11/08 10:22:21;;;;;;;10.07;3.75;;;12.90;83.10;;;;;;6248045;23;20004;-77
2021/11/08 10:24:49;;;;;;;9.75;3.70;;;12.90;83.00;;;;;;6222270;23;20004;-75
2021/11/08 10:27:17;;;;;;;8.07;3.25;;;13.10;82.30;;;;;;6247380;23;20000;-75
2021/11/08 10:29:46;;;;;;;7.97;3.00;;;13.10;82.30;;;;;;6222610;23;20011;-75
2021/11/08 10:32:13;;;;;;;11.68;3.90;;;13.50;81.40;;;;;;6221763;23;20008;-76
2021/11/08 10:34:56;;;;;;;9.50;3.17;;;13.90;79.70;;;;;;6248807;23;20244;-75
2021/11/08 10:37:24;;;;;;;10.13;3.25;;;14.30;79.00;;;;;;6222062;23;20000;-77
2021/11/08 10:39:52;;;;;;;10.20;3.00;;;14.30;78.10;;;;;;6248963;23;20301;-76
2021/11/08 10:42:24;;;;;;;10.18;4.15;;;14.20;77.00;;;;;;6220427;23;20012;-75
2021/11/08 10:44:50;;;;;;;11.10;3.33;;;13.20;79.00;;;;;;6248978;23;20028;-77
2021/11/08 10:47:20;;;;;;;10.23;4.07;;;12.00;83.00;;;;;;6248653;23;20000;-75
2021/11/08 10:49:46;;;;;;;13.57;4.13;;;11.60;83.80;;;;;;6248967;23;20330;-77
2021/11/08 10:52:14;;;;;;;8.23;3.80;;;10.80;86.40;;;;;;6248543;23;20036;-74
2021/11/08 10:54:45;;;;;;;9.63;4.00;;;10.50;87.60;;;;;;6222135;23;20428;-74
2021/11/08 10:57:17;;;;;;;12.85;3.88;;;10.40;88.00;;;;;;6247165;23;19996;-77
2021/11/08 10:59:48;;;;;;;11.52;3.65;;;10.50;88.40;;;;;;6222460;23;20007;-74
2021/11/08 11:02:21;;;;;;;15.25;4.35;;;11.70;86.80;;;;;;6248521;23;20050;-79
2021/11/08 11:05:02;;;;;;;9.88;3.70;;;12.40;84.20;;;;;;6250003;23;20366;-78
2021/11/08 11:07:34;;;;;;;9.05;3.50;;;13.00;82.40;;;;;;6250304;23;20333;-76
2021/11/08 11:10:11;;;;;;;12.57;4.82;;;13.50;82.00;;;;;;6250616;23;20004;-77
2021/11/08 11:12:41;;;;;;;9.65;4.78;;;13.10;80.40;;;;;;6249371;23;20004;-76
2021/11/08 11:15:10;;;;;;;11.20;3.65;;;12.00;83.40;;;;;;6223860;23;20023;-76
2021/11/08 11:17:43;;;;;;;19.42;4.95;;;11.20;84.90;;;;;;6219347;22;20035;-75
2021/11/08 11:20:13;;;;;;;15.77;5.15;;;11.20;83.20;;;;;;6221142;22;20000;-75
2021/11/08 11:22:45;;;;;;;10.23;3.60;;;10.70;84.60;;;;;;6250162;23;20011;-79
2021/11/08 11:25:13;;;;;;;13.00;3.95;;;11.00;84.50;;;;;;6248270;22;20362;-76
2021/11/08 11:27:50;;;;;;;13.32;4.30;;;10.50;83.20;;;;;;6223704;23;20014;-75
2021/11/08 11:30:20;;;;;;;9.70;3.80;;;10.40;86.20;;;;;;6250585;23;20447;-76
2021/11/08 11:33:02;;;;;;;13.25;3.72;;;10.50;84.10;;;;;;6248805;22;20335;-77
2021/11/08 11:35:37;;;;;;;16.60;4.32;;;10.40;85.10;;;;;;6223476;23;20004;-75
2021/11/08 11:38:10;;;;;;;13.60;4.28;;;10.00;86.70;;;;;;6250272;23;20007;-75
2021/11/08 11:40:40;;;;;;;15.80;5.03;;;10.20;87.10;;;;;;6249031;23;20366;-77
2021/11/08 11:43:09;;;;;;;13.10;3.70;;;10.90;85.30;;;;;;6250346;23;20004;-75
2021/11/08 11:45:50;;;;;;;12.00;4.00;;;11.50;83.40;;;;;;6250500;23;20016;-75
2021/11/08 11:48:18;;;;;;;19.15;5.45;;;11.30;82.20;;;;;;6250122;23;20004;-77
2021/11/08 11:50:44;;;;;;;12.77;3.80;;;11.20;81.40;;;;;;6248965;22;20366;-77
2021/11/08 11:53:09;;;;;;;8.45;3.25;;;10.80;81.70;;;;;;6250361;23;19996;-76
2021/11/08 11:55:38;;;;;;;10.77;4.13;;;10.50;82.50;;;;;;6222256;23;20031;-76
2021/11/08 11:58:05;;;;;;;8.95;3.22;;;9.70;84.40;;;;;;6249974;23;19996;-76
2021/11/08 12:00:36;;;;;;;13.65;5.00;;;9.20;87.10;;;;;;6250378;23;20266;-76
2021/11/08 12:03:03;;;;;;;16.67;4.13;;;9.20;87.50;;;;;;6250046;23;20004;-75
2021/11/08 12:05:29;;;;;;;14.60;3.42;;;9.40;86.60;;;;;;6250274;23;20000;-76
2021/11/08 12:07:58;;;;;;;15.82;3.75;;;9.50;86.40;;;;;;6249890;23;20031;-77
2021/11/08 12:10:24;;;;;;;16.52;3.63;;;9.60;85.80;;;;;;6248501;23;20001;-77
2021/11/08 12:12:49;;;;;;;15.02;4.25;;;9.40;86.40;;;;;;6250236;23;20004;-76
2021/11/08 12:15:25;;;;;;;10.45;3.88;;;9.20;86.60;;;;;;6248276;22;20301;-76
2021/11/08 12:17:52;;;;;;;15.77;3.60;;;8.90;87.50;;;;;;6249775;23;20007;-75
2021/11/08 12:20:24;;;;;;;15.02;3.53;;;8.70;87.70;;;;;;6250249;23;20083;-76
2021/11/08 12:22:50;;;;;;;14.35;3.88;;;9.30;88.20;;;;;;6223176;23;20365;-77
2021/11/08 12:25:22;;;;;;;11.85;3.22;;;9.50;86.10;;;;;;6222073;23;20008;-76
2021/11/08 12:27:55;;;;;;;13.93;4.00;;;10.00;84.90;;;;;;6249869;23;20007;-76
2021/11/08 12:30:31;;;;;;;10.63;2.85;;;10.60;82.50;;;;;;6223324;23;20270;-77
2021/11/08 12:32:58;;;;;;;12.80;3.60;;;11.10;81.50;;;;;;6249839;23;20079;-76
2021/11/08 12:35:37;;;;;;;8.23;2.63;;;11.80;79.60;;;;;;6249817;23;20362;-77
2021/11/08 12:38:44;;;;;;;11.38;3.33;;;12.10;77.00;;;;;;6249765;23;20071;-77
2021/11/08 12:41:24;;;;;;;11.68;3.00;;;11.70;77.10;;;;;;6216177;23;20083;-76
2021/11/08 12:43:58;;;;;;;11.45;2.42;;;11.70;79.30;;;;;;6249697;23;20000;-76
2021/11/08 12:46:34;;;;;;;14.55;3.47;;;11.90;77.80;;;;;;6223221;23;20370;-75
2021/11/08 12:49:17;;;;;;;10.73;3.42;;;11.90;76.60;;;;;;6223155;23;20370;-75
2021/11/08 12:51:59;;;;;;;13.13;3.97;;;12.00;77.40;;;;;;6223058;23;20004;-77
2021/11/08 12:54:27;;;;;;;11.30;3.10;;;12.00;76.50;;;;;;6249505;23;20000;-75
2021/11/08 12:57:03;;;;;;;8.70;2.92;;;12.00;77.30;;;;;;6221703;23;20348;-77
2021/11/08 12:59:34;;;;;;;11.48;4.18;;;12.20;76.40;;;;;;6223082;23;20000;-75
2021/11/08 13:02:10;;;;;;;9.52;3.05;;;12.30;76.10;;;;;;6222926;23;20091;-77
2021/11/08 13:04:49;;;;;;;11.48;3.50;;;12.20;77.60;;;;;;6249724;23;20000;-77
2021/11/08 13:07:17;;;;;;;12.18;3.33;;;12.20;76.20;;;;;;6249598;23;20016;-77
2021/11/08 13:09:52;;;;;;;14.88;3.55;;;12.00;75.50;;;;;;6249303;23;20354;-77
2021/11/08 13:12:29;;;;;;;11.52;2.53;;;11.90;77.30;;;;;;6248564;23;20030;-75
2021/11/08 13:15:20;;;;;;;13.10;3.22;;;11.90;75.70;;;;;;6221596;23;20004;-78
2021/11/08 13:18:02;;;;;;;8.48;2.90;;;11.80;77.90;;;;;;6249603;23;20262;-76
2021/11/08 13:20:34;;;;;;;11.85;2.50;;;11.50;76.80;;;;;;6222920;23;20232;-75
2021/11/08 13:23:22;;;;;;;15.02;3.40;;;11.70;77.30;;;;;;6249608;23;20010;-75
2021/11/08 13:25:54;;;;;;;7.93;2.50;;;11.60;76.20;;;;;;6246726;23;20056;-77
2021/11/08 13:28:22;;;;;;;9.32;2.45;;;11.20;76.40;;;;;;6249241;23;20038;-76
2021/11/08 13:30:49;;;;;;;8.43;2.45;;;10.50;77.60;;;;;;6249252;23;20451;-76
2021/11/08 13:33:22;;;;;;;8.43;3.00;;;9.90;76.80;;;;;;6249430;23;20050;-75
2021/11/08 13:35:48;;;;;;;10.70;2.88;;;9.30;80.00;;;;;;6249257;23;20007;-77
2021/11/08 13:38:27;;;;;;;11.48;3.05;;;9.30;81.60;;;;;;6222836;23;20004;-77
2021/11/08 13:41:17;;;;;;;12.20;3.50;;;9.60;81.80;;;;;;6221094;23;20004;-75
2021/11/08 13:43:56;;;;;;;11.20;3.05;;;9.50;81.80;;;;;;6222640;23;20030;-76
2021/11/08 13:46:34;;;;;;;14.75;4.70;;;9.30;82.50;;;;;;6222314;23;20083;-76
2021/11/08 13:49:10;;;;;;;10.52;3.83;;;9.30;82.70;;;;;;6222648;23;20000;-75
2021/11/08 13:51:39;;;;;;;15.43;4.97;;;9.10;84.40;;;;;;6222644;23;20012;-75
2021/11/08 13:54:17;;;;;;;19.58;6.45;;;8.80;86.20;;;;;;6222673;23;20010;-75
2021/11/08 13:56:55;;;;;;;16.02;5.20;;;8.70;86.90;;;;;;6247625;23;20075;-77
2021/11/08 13:59:25;;;;;;;13.65;4.32;;;8.40;87.50;;;;;;6249262;23;20560;-77
2021/11/08 14:02:05;;;;;;;13.27;4.43;;;8.20;88.20;;;;;;6248540;23;20000;-77
2021/11/08 14:04:39;;;;;;;16.05;5.00;;;8.00;89.10;;;;;;6222532;23;20032;-76
2021/11/08 14:07:06;;;;;;;14.27;4.63;;;7.90;90.00;;;;;;6249048;23;20040;-76
2021/11/08 14:09:32;;;;;;;15.55;5.15;;;8.00;90.20;;;;;;6249066;23;20004;-76
2021/11/08 14:12:01;;;;;;;18.85;5.13;;;8.10;90.10;;;;;;6221003;23;20012;-76
2021/11/08 14:14:28;;;;;;;11.35;3.97;;;8.50;89.60;;;;;;6249006;23;20265;-76
2021/11/08 14:17:08;;;;;;;11.50;4.05;;;8.60;89.00;;;;;;6222356;23;20054;-76
2021/11/08 14:19:33;;;;;;;16.88;5.25;;;8.50;88.50;;;;;;6249014;23;20076;-77
2021/11/08 14:21:59;;;;;;;13.77;4.68;;;8.20;89.80;;;;;;6249046;23;20004;-77
2021/11/08 14:24:26;;;;;;;13.60;4.97;;;8.00;90.60;;;;;;6222418;23;20011;-77
2021/11/08 14:26:55;;;;;;;13.02;4.75;;;7.90;91.40;;;;;;6220897;23;20012;-76
2021/11/08 14:29:21;;;;;;;17.83;4.57;;;8.00;92.70;;;;;;6222242;23;20273;-76
2021/11/08 14:31:56;;;;;;;20.98;6.00;;;8.50;92.10;;;;;;6247603;22;20008;-77
2021/11/08 14:34:26;;;;;;;13.02;4.38;;;8.70;90.60;;;;;;6249333;23;20024;-75
2021/11/08 14:36:52;;;;;;;17.52;4.25;;;8.80;90.20;;;;;;6222536;23;20000;-77